Terminal Aerodrome Forecast
Issued by NWS Jackson, MS

Home | Current Version | Previous Version | Text Only | Print | Product List | Glossary On
Versions: 1 2 3 4 5 6 7 8 9 10 11 12
107
FTUS44 KJAN 280536
TAFGWO
TAF
KGWO 280536Z 2806/2906 19009KT P6SM SCT060
     FM280730 36015G25KT 5SM -TSRA BKN015CB OVC025
     FM280830 19010KT P6SM VCSH SCT015 BKN025
     FM281200 20014G20KT P6SM VCSH BKN035
     FM281900 20013G20KT P6SM VCTS BKN050CB
     FM290100 20005KT P6SM BKN070=

USA.gov is the U.S. government's official web portal to all federal, state and local government web resources and services.